Time;durP1;ratioP1;P1;durP2;ratioP2;P2;SDS_P1;SDS_P2;PMS_P1;PMS_P2;Temp;Humidity;BMP_temperature;BMP_pressure;BME280_temperature;BME280_humidity;BME280_pressure;Samples;Min_cycle;Max_cycle;Signal;HPM_P1;HPM_P2
2022/04/02 00:00:47;;;;;;;22.17;20.67;;;;;;;12.22;100.00;99277.22;5112765;28;20487;-79
2022/04/02 00:03:15;;;;;;;22.90;21.10;;;;;;;12.00;100.00;99272.75;5112997;28;20097;-81
2022/04/02 00:05:42;;;;;;;24.77;23.17;;;;;;;11.83;100.00;99274.63;5107071;28;20113;-80
2022/04/02 00:08:27;;;;;;;26.52;24.30;;;;;;;11.97;100.00;99280.44;5113198;28;20052;-80
2022/04/02 00:10:54;;;;;;;23.25;21.77;;;;;;;11.89;100.00;99297.63;5112392;28;20093;-80
2022/04/02 00:13:21;;;;;;;24.25;22.48;;;;;;;11.90;100.00;99308.03;5112632;28;20104;-80
2022/04/02 00:15:48;;;;;;;21.95;19.88;;;;;;;12.02;100.00;99289.28;5110451;28;20044;-81
2022/04/02 00:18:16;;;;;;;22.38;20.88;;;;;;;11.97;100.00;99291.88;5109533;28;20344;-80
2022/04/02 00:20:43;;;;;;;25.10;23.30;;;;;;;12.17;100.00;99287.84;5111900;28;20112;-80
2022/04/02 00:25:54;;;;;;;34.00;31.90;;;;;;;12.46;100.00;99275.84;5111606;28;20055;-79
2022/04/02 00:28:22;;;;;;;37.60;35.25;;;;;;;12.36;100.00;99270.44;5111572;28;20047;-79
2022/04/02 00:30:50;;;;;;;38.70;36.60;;;;;;;12.41;100.00;99270.50;5112629;28;20043;-80
2022/04/02 00:33:18;;;;;;;39.00;36.75;;;;;;;12.30;100.00;99271.44;5112807;28;20407;-80
2022/04/02 00:35:45;;;;;;;37.72;35.53;;;;;;;12.24;100.00;99273.25;5112404;28;20051;-80
2022/04/02 00:38:12;;;;;;;33.00;31.10;;;;;;;12.25;100.00;99276.72;5107744;28;20075;-79
2022/04/02 00:40:42;;;;;;;37.80;35.42;;;;;;;12.55;100.00;99270.84;5111893;28;20439;-79
2022/04/02 00:43:21;;;;;;;38.85;36.60;;;;;;;12.53;100.00;99270.34;5109929;28;20074;-80
2022/04/02 00:45:49;;;;;;;44.25;41.65;;;;;;;12.51;100.00;99275.91;5101111;28;20040;-81
2022/04/02 00:48:16;;;;;;;56.90;54.03;;;;;;;12.61;100.00;99269.84;5112200;28;20039;-78
2022/04/02 00:50:46;;;;;;;38.78;36.78;;;;;;;12.64;100.00;99269.34;5111983;28;20116;-79
2022/04/02 00:53:14;;;;;;;54.10;51.13;;;;;;;12.58;100.00;99271.16;5110202;28;20040;-81
2022/04/02 00:55:42;;;;;;;45.70;43.40;;;;;;;12.78;100.00;99267.84;5110013;28;20052;-78
2022/04/02 00:58:10;;;;;;;49.90;47.30;;;;;;;12.70;100.00;99264.84;5108102;28;20097;-79
2022/04/02 01:00:39;;;;;;;45.35;43.13;;;;;;;12.68;100.00;99274.94;5111187;28;20079;-78
2022/04/02 01:03:08;;;;;;;42.50;40.13;;;;;;;12.64;100.00;99274.66;5100244;28;20082;-77
2022/04/02 01:05:36;;;;;;;43.80;41.35;;;;;;;12.70;100.00;99286.16;5112291;28;20537;-79
2022/04/02 01:08:06;;;;;;;38.55;36.15;;;;;;;12.80;100.00;99283.59;5105420;28;20048;-78
2022/04/02 01:10:33;;;;;;;38.88;36.67;;;;;;;12.69;100.00;99285.38;5107889;28;20139;-78
2022/04/02 01:13:00;;;;;;;39.75;37.65;;;;;;;12.69;100.00;99289.91;5112064;28;20071;-77
2022/04/02 01:15:29;;;;;;;36.10;34.25;;;;;;;12.72;100.00;99284.84;5111631;28;20059;-78
2022/04/02 01:17:56;;;;;;;45.88;43.67;;;;;;;12.74;100.00;99282.75;5108523;28;20407;-79
2022/04/02 01:20:24;;;;;;;41.70;39.55;;;;;;;12.77;100.00;99302.75;5111522;28;20048;-79
2022/04/02 01:22:53;;;;;;;33.50;31.17;;;;;;;12.77;100.00;99305.41;5099679;28;20507;-80
2022/04/02 01:25:21;;;;;;;33.00;30.92;;;;;;;12.48;100.00;99308.34;5111198;28;20477;-79
2022/04/02 01:27:49;;;;;;;30.10;27.73;;;;;;;12.25;100.00;99306.78;5111489;28;20043;-78
2022/04/02 01:30:16;;;;;;;33.03;30.85;;;;;;;12.24;100.00;99305.19;5110539;28;20044;-79
2022/04/02 01:32:44;;;;;;;35.05;32.70;;;;;;;12.22;100.00;99312.63;5115513;28;20100;-79
2022/04/02 01:35:13;;;;;;;39.90;37.38;;;;;;;12.17;100.00;99309.94;5112405;28;20460;-79
2022/04/02 01:37:40;;;;;;;30.73;28.70;;;;;;;12.11;100.00;99302.94;5107421;28;20047;-78
2022/04/02 01:40:13;;;;;;;31.48;29.33;;;;;;;12.45;100.00;99300.06;5102600;28;20516;-79
2022/04/02 01:42:41;;;;;;;32.42;30.45;;;;;;;12.31;100.00;99297.81;5115543;28;20449;-79
2022/04/02 01:45:09;;;;;;;36.60;34.28;;;;;;;12.24;100.00;99299.88;5113435;28;20047;-79
2022/04/02 01:47:37;;;;;;;34.10;31.98;;;;;;;12.26;100.00;99320.94;5115977;28;20079;-78
2022/04/02 01:50:04;;;;;;;34.70;32.70;;;;;;;12.13;100.00;99308.78;5114638;28;20048;-80
2022/04/02 01:52:31;;;;;;;27.92;26.23;;;;;;;12.05;100.00;99310.06;5115285;28;20184;-79
2022/04/02 01:54:59;;;;;;;22.83;21.40;;;;;;;12.31;100.00;99307.66;5115626;28;20054;-79
2022/04/02 01:57:27;;;;;;;25.02;22.95;;;;;;;12.11;100.00;99300.28;5110065;28;20048;-78
2022/04/02 01:59:54;;;;;;;24.52;22.85;;;;;;;12.12;100.00;99307.19;5109969;28;20056;-79
2022/04/02 02:02:21;;;;;;;24.40;22.90;;;;;;;12.20;100.00;99312.09;5111600;28;20096;-78
2022/04/02 02:04:48;;;;;;;29.30;27.30;;;;;;;12.19;100.00;99315.78;5105752;28;20051;-78
2022/04/02 02:07:16;;;;;;;33.10;31.20;;;;;;;12.09;100.00;99321.00;5100457;28;20437;-79
2022/04/02 02:09:44;;;;;;;31.15;28.98;;;;;;;12.11;100.00;99324.22;5111419;28;20044;-78
2022/04/02 02:12:12;;;;;;;33.20;30.90;;;;;;;12.18;100.00;99324.03;5115279;28;20400;-78
2022/04/02 02:14:41;;;;;;;24.10;22.25;;;;;;;12.23;100.00;99326.75;5115356;28;20040;-79
2022/04/02 02:17:09;;;;;;;29.20;27.05;;;;;;;12.21;100.00;99320.88;5113947;28;20043;-79
2022/04/02 02:19:37;;;;;;;26.63;24.83;;;;;;;12.10;100.00;99327.94;5114334;28;20480;-77
2022/04/02 02:22:05;;;;;;;38.97;36.63;;;;;;;12.17;100.00;99320.56;5107197;28;20044;-78
2022/04/02 02:24:32;;;;;;;34.08;31.77;;;;;;;12.13;100.00;99308.78;5115246;28;20162;-80
2022/04/02 02:27:00;;;;;;;31.70;29.67;;;;;;;12.05;100.00;99322.56;5110401;28;20097;-80
2022/04/02 02:29:28;;;;;;;36.53;33.97;;;;;;;12.05;100.00;99307.41;5114501;28;20130;-79
2022/04/02 02:31:56;;;;;;;31.85;29.92;;;;;;;12.03;100.00;99322.00;5107623;28;20044;-82
2022/04/02 02:37:09;;;;;;;39.28;36.97;;;;;;;11.90;100.00;99321.34;5112300;28;20155;-80
2022/04/02 02:39:36;;;;;;;31.73;29.58;;;;;;;11.83;100.00;99314.53;5105706;28;20123;-79
2022/04/02 02:42:03;;;;;;;28.73;26.90;;;;;;;11.89;100.00;99317.06;5114346;28;20055;-78
2022/04/02 02:44:30;;;;;;;27.10;25.25;;;;;;;11.94;100.00;99318.16;5109666;28;20458;-78
2022/04/02 02:46:58;;;;;;;33.85;31.65;;;;;;;11.87;100.00;99318.38;5113781;28;20511;-78
2022/04/02 02:49:25;;;;;;;30.98;29.27;;;;;;;11.74;100.00;99324.00;5113258;28;20048;-77
2022/04/02 02:51:53;;;;;;;36.13;34.13;;;;;;;11.90;100.00;99326.66;5114648;28;20108;-79
2022/04/02 02:54:20;;;;;;;40.67;38.05;;;;;;;11.87;100.00;99315.72;5110710;28;20051;-79
2022/04/02 02:56:47;;;;;;;30.23;28.40;;;;;;;11.79;100.00;99330.19;5113644;28;20093;-78
2022/04/02 02:59:14;;;;;;;27.42;25.63;;;;;;;11.73;100.00;99328.53;5113223;28;20473;-80
2022/04/02 03:01:41;;;;;;;25.35;23.50;;;;;;;11.73;100.00;99331.19;5110592;28;20112;-79
2022/04/02 03:04:09;;;;;;;25.85;23.60;;;;;;;11.70;100.00;99332.47;5103807;28;20043;-79
2022/04/02 03:06:37;;;;;;;27.50;25.83;;;;;;;11.80;100.00;99326.50;5104956;28;20044;-78
2022/04/02 03:09:05;;;;;;;37.33;35.13;;;;;;;11.77;100.00;99323.50;5111536;28;20051;-78
2022/04/02 03:11:34;;;;;;;30.45;28.60;;;;;;;11.83;100.00;99336.66;5113778;28;20055;-78
2022/04/02 03:14:00;;;;;;;31.65;29.55;;;;;;;11.58;100.00;99338.97;5112642;28;20554;-78
2022/04/02 03:16:27;;;;;;;30.83;28.58;;;;;;;11.58;100.00;99337.13;5113744;28;20048;-78
2022/04/02 03:18:55;;;;;;;25.70;24.08;;;;;;;11.50;100.00;99332.25;5110995;28;20095;-79
2022/04/02 03:21:24;;;;;;;24.95;23.25;;;;;;;11.50;100.00;99340.22;5110947;28;20590;-78
2022/04/02 03:23:52;;;;;;;28.48;26.55;;;;;;;11.57;100.00;99340.03;5113717;28;20410;-78
2022/04/02 03:26:19;;;;;;;40.20;37.90;;;;;;;11.48;100.00;99358.25;5111884;28;20039;-79
2022/04/02 03:28:49;;;;;;;28.17;26.20;;;;;;;11.39;100.00;99355.22;5110350;28;20518;-79
2022/04/02 03:31:16;;;;;;;25.73;24.13;;;;;;;11.54;100.00;99351.16;5104839;28;20040;-78
2022/04/02 03:33:44;;;;;;;27.83;25.58;;;;;;;11.51;100.00;99341.81;5102418;28;20048;-78
2022/04/02 03:36:12;;;;;;;24.42;22.48;;;;;;;11.36;100.00;99346.91;5113653;28;20036;-78
2022/04/02 03:38:40;;;;;;;25.80;24.10;;;;;;;11.48;100.00;99355.59;5113343;28;20559;-79
2022/04/02 03:41:07;;;;;;;23.95;22.42;;;;;;;11.42;100.00;99357.38;5106418;28;20055;-79
2022/04/02 03:43:34;;;;;;;27.58;25.77;;;;;;;11.43;100.00;99368.81;5106878;28;20039;-79
2022/04/02 03:48:41;;;;;;;24.10;22.35;;;;;;;11.41;100.00;99374.38;5104995;28;20058;-79
2022/04/02 03:51:08;;;;;;;22.90;21.35;;;;;;;11.33;100.00;99382.75;5111257;28;20067;-79
2022/04/02 03:53:35;;;;;;;26.75;24.65;;;;;;;11.46;100.00;99370.97;5112865;28;20058;-78
2022/04/02 03:56:03;;;;;;;28.20;26.15;;;;;;;11.50;100.00;99377.44;5110492;28;20048;-78
2022/04/02 03:58:32;;;;;;;24.67;22.95;;;;;;;11.47;100.00;99375.28;5103320;28;20044;-79
2022/04/02 04:00:58;;;;;;;29.00;27.17;;;;;;;11.45;100.00;99375.50;5105859;28;20134;-78
2022/04/02 04:03:25;;;;;;;25.33;23.42;;;;;;;11.35;100.00;99371.91;5112628;28;20108;-79
2022/04/02 04:05:53;;;;;;;26.27;24.45;;;;;;;11.48;100.00;99379.53;5112134;28;20499;-79
2022/04/02 04:08:20;;;;;;;30.48;28.52;;;;;;;11.45;100.00;99374.69;5109574;28;20040;-79
2022/04/02 04:10:49;;;;;;;21.65;20.20;;;;;;;11.35;100.00;99382.53;5109796;28;20044;-79
2022/04/02 04:13:18;;;;;;;22.52;20.67;;;;;;;11.54;100.00;99388.38;5112496;28;20090;-78
2022/04/02 04:15:46;;;;;;;21.83;20.42;;;;;;;11.50;100.00;99382.75;5103514;28;20567;-79
2022/04/02 04:18:14;;;;;;;23.20;21.80;;;;;;;11.45;100.00;99388.78;5112238;28;20043;-80
2022/04/02 04:20:41;;;;;;;28.17;26.30;;;;;;;11.39;100.00;99391.63;5113121;28;20044;-78
2022/04/02 04:23:07;;;;;;;26.25;24.75;;;;;;;11.39;100.00;99387.09;5103826;28;20077;-79
2022/04/02 04:25:34;;;;;;;28.33;26.73;;;;;;;11.50;100.00;99396.06;5106833;28;20663;-77
2022/04/02 04:28:04;;;;;;;26.17;24.65;;;;;;;11.48;100.00;99405.31;5094177;28;20052;-78
2022/04/02 04:30:32;;;;;;;22.27;20.70;;;;;;;11.38;100.00;99405.97;5104724;28;20117;-78
2022/04/02 04:32:59;;;;;;;22.70;21.25;;;;;;;11.52;100.00;99409.88;5109105;28;20100;-79
2022/04/02 04:35:26;;;;;;;24.00;22.58;;;;;;;11.51;100.00;99418.91;5107528;28;20105;-79
2022/04/02 04:37:54;;;;;;;30.38;28.35;;;;;;;11.68;100.00;99413.59;5109377;28;20051;-79
2022/04/02 04:40:23;;;;;;;34.58;32.47;;;;;;;11.75;100.00;99414.22;5111538;28;20076;-80
2022/04/02 04:42:50;;;;;;;31.42;29.42;;;;;;;11.76;100.00;99420.34;5101524;28;20055;-77
2022/04/02 04:45:16;;;;;;;33.30;31.38;;;;;;;11.82;100.00;99419.34;5110459;28;20051;-78
2022/04/02 04:47:47;;;;;;;26.17;24.67;;;;;;;12.02;100.00;99421.53;5110150;28;20056;-80
2022/04/02 04:50:16;;;;;;;25.23;23.30;;;;;;;11.90;100.00;99425.09;5103889;28;20043;-81
2022/04/02 04:52:44;;;;;;;32.50;30.60;;;;;;;12.01;100.00;99417.22;5104238;28;20043;-80
2022/04/02 04:55:12;;;;;;;30.38;28.52;;;;;;;12.10;100.00;99421.91;5097562;28;20560;-81
2022/04/02 04:57:39;;;;;;;28.75;27.08;;;;;;;12.18;100.00;99417.19;5111901;28;20039;-79
2022/04/02 05:00:07;;;;;;;32.40;30.60;;;;;;;12.34;100.00;99425.13;5112665;28;20047;-79
2022/04/02 05:02:35;;;;;;;33.60;31.63;;;;;;;12.37;100.00;99421.97;5110444;28;20054;-81
2022/04/02 05:05:06;;;;;;;32.78;30.75;;;;;;;12.43;100.00;99432.66;5115122;28;20044;-78
2022/04/02 05:07:33;;;;;;;30.90;29.20;;;;;;;12.42;100.00;99439.84;5114100;28;20123;-80
2022/04/02 05:09:59;;;;;;;28.02;26.40;;;;;;;12.57;100.00;99440.00;5115510;28;20098;-79
2022/04/02 05:12:28;;;;;;;27.67;25.92;;;;;;;12.88;100.00;99444.84;5106228;28;20052;-80
2022/04/02 05:14:56;;;;;;;32.42;30.73;;;;;;;13.03;100.00;99445.78;5100598;28;20048;-80
2022/04/02 05:17:24;;;;;;;26.08;24.55;;;;;;;13.06;100.00;99439.97;5107479;28;20461;-80
2022/04/02 05:19:53;;;;;;;30.50;28.90;;;;;;;13.13;100.00;99439.78;5116236;28;20051;-80
2022/04/02 05:22:25;;;;;;;31.98;30.13;;;;;;;13.01;100.00;99445.25;5115962;28;20040;-80
2022/04/02 05:24:53;;;;;;;27.85;26.35;;;;;;;13.18;100.00;99445.13;5102828;28;20100;-80
2022/04/02 05:27:28;;;;;;;28.75;26.35;;;;;;;13.33;100.00;99449.03;5113737;28;20495;-80
2022/04/02 05:29:55;;;;;;;30.50;28.60;;;;;;;13.25;100.00;99445.78;5108244;28;20040;-80
2022/04/02 05:32:23;;;;;;;35.88;33.67;;;;;;;13.34;100.00;99445.28;5104701;28;20051;-80
2022/04/02 05:34:52;;;;;;;42.92;40.33;;;;;;;13.41;100.00;99446.69;5115909;28;20048;-80
2022/04/02 05:37:19;;;;;;;34.30;32.05;;;;;;;13.58;100.00;99454.53;5116281;28;20117;-80
2022/04/02 05:39:50;;;;;;;39.67;37.28;;;;;;;13.67;100.00;99452.19;5115375;28;20044;-80
2022/04/02 05:42:17;;;;;;;32.85;30.73;;;;;;;13.58;100.00;99462.53;5114762;28;20557;-79
2022/04/02 05:44:44;;;;;;;43.50;40.90;;;;;;;13.61;100.00;99461.22;5111933;28;20085;-80
2022/04/02 05:47:11;;;;;;;40.35;38.13;;;;;;;13.70;100.00;99468.50;5115370;28;20469;-81
2022/04/02 05:49:38;;;;;;;38.72;36.45;;;;;;;13.91;100.00;99479.31;5107043;28;20048;-81
2022/04/02 05:52:05;;;;;;;38.00;36.03;;;;;;;13.93;100.00;99477.19;5097064;28;20040;-80
2022/04/02 05:54:36;;;;;;;32.95;31.17;;;;;;;13.92;100.00;99481.72;5114044;28;20050;-81
2022/04/02 05:57:07;;;;;;;34.80;32.55;;;;;;;14.14;100.00;99486.13;5110147;28;20052;-80
2022/04/02 05:59:34;;;;;;;34.72;32.92;;;;;;;14.43;100.00;99484.66;5112603;28;20101;-80
2022/04/02 06:02:01;;;;;;;34.53;32.50;;;;;;;14.58;100.00;99480.44;5107933;28;20100;-80
2022/04/02 06:04:28;;;;;;;33.30;31.52;;;;;;;14.45;100.00;99484.38;5112332;28;20441;-80
2022/04/02 06:06:56;;;;;;;34.95;33.15;;;;;;;14.37;100.00;99484.88;5104727;28;20072;-80
2022/04/02 06:09:24;;;;;;;31.48;29.77;;;;;;;14.48;100.00;99483.06;5112894;28;20261;-80
2022/04/02 06:11:51;;;;;;;35.05;33.20;;;;;;;14.54;100.00;99480.19;5105702;28;20056;-81
2022/04/02 06:14:21;;;;;;;31.13;29.42;;;;;;;14.42;100.00;99484.91;5100785;28;20040;-82
2022/04/02 06:16:49;;;;;;;30.23;28.60;;;;;;;14.31;100.00;99488.59;5110343;28;20044;-80
2022/04/02 06:19:17;;;;;;;29.27;27.60;;;;;;;14.52;100.00;99490.31;5114769;28;20051;-80
2022/04/02 06:21:44;;;;;;;31.42;29.63;;;;;;;14.54;100.00;99484.72;5115696;28;20047;-80
2022/04/02 06:24:11;;;;;;;26.33;24.90;;;;;;;14.62;100.00;99492.25;5109645;28;20089;-81
2022/04/02 06:26:40;;;;;;;27.63;25.85;;;;;;;14.52;100.00;99487.63;5103830;28;20048;-80
2022/04/02 06:29:06;;;;;;;27.20;25.63;;;;;;;14.65;100.00;99479.16;5100462;28;20044;-80
2022/04/02 06:31:35;;;;;;;29.35;27.55;;;;;;;14.78;100.00;99487.75;5099791;28;20058;-81
2022/04/02 06:34:07;;;;;;;26.98;25.58;;;;;;;14.95;100.00;99484.81;5114770;28;20048;-82
2022/04/02 06:36:34;;;;;;;28.90;27.40;;;;;;;15.02;100.00;99483.50;5115392;28;20051;-81
2022/04/02 06:39:04;;;;;;;30.30;28.33;;;;;;;15.19;100.00;99482.47;5116476;28;20047;-80
2022/04/02 06:41:31;;;;;;;30.85;29.08;;;;;;;15.22;100.00;99488.09;5111076;28;20487;-80
2022/04/02 06:43:58;;;;;;;27.73;26.27;;;;;;;15.16;100.00;99483.00;5106778;28;20044;-80
2022/04/02 06:46:25;;;;;;;28.05;26.45;;;;;;;15.28;100.00;99494.22;5111197;28;20051;-80
2022/04/02 06:48:56;;;;;;;26.75;25.08;;;;;;;15.32;100.00;99490.78;5105937;28;20096;-81
2022/04/02 06:51:23;;;;;;;24.90;23.60;;;;;;;15.32;100.00;99495.31;5094744;28;20094;-80
2022/04/02 06:53:51;;;;;;;26.73;25.40;;;;;;;15.22;100.00;99497.97;5108834;28;20051;-80
2022/04/02 06:56:18;;;;;;;28.92;27.42;;;;;;;15.22;100.00;99496.13;5114216;28;20564;-80
2022/04/02 06:58:46;;;;;;;26.50;25.05;;;;;;;15.47;100.00;99500.69;5113693;28;20051;-81
2022/04/02 07:01:13;;;;;;;25.85;24.00;;;;;;;15.42;100.00;99506.03;5113983;28;20097;-81
2022/04/02 07:03:40;;;;;;;26.70;25.30;;;;;;;15.23;100.00;99504.94;5114133;28;20051;-80
2022/04/02 07:06:10;;;;;;;25.80;24.20;;;;;;;15.66;100.00;99522.34;5114853;28;20051;-81
2022/04/02 07:08:38;;;;;;;27.52;26.02;;;;;;;15.47;100.00;99524.75;5114273;28;20043;-80
2022/04/02 07:11:07;;;;;;;28.80;27.33;;;;;;;15.41;100.00;99519.69;5114490;28;20048;-81
2022/04/02 07:13:33;;;;;;;28.15;26.70;;;;;;;15.29;100.00;99519.94;5114209;28;20055;-80
2022/04/02 07:16:02;;;;;;;26.90;25.50;;;;;;;15.66;100.00;99526.91;5113934;28;20048;-80
2022/04/02 07:18:30;;;;;;;27.20;25.70;;;;;;;15.66;100.00;99521.56;5114553;28;20084;-81
2022/04/02 07:21:01;;;;;;;27.38;25.85;;;;;;;15.85;100.00;99522.63;5114144;28;20047;-81
2022/04/02 07:23:32;;;;;;;28.80;27.30;;;;;;;15.82;100.00;99520.50;5113762;28;20131;-81
2022/04/02 07:26:04;;;;;;;27.33;25.90;;;;;;;15.90;100.00;99519.94;5113001;28;20050;-80
2022/04/02 07:28:31;;;;;;;27.70;26.20;;;;;;;16.13;100.00;99525.81;5111032;28;20043;-81
2022/04/02 07:30:59;;;;;;;27.48;26.17;;;;;;;16.07;100.00;99527.72;5100591;28;20496;-81
2022/04/02 07:33:25;;;;;;;26.52;25.25;;;;;;;16.52;100.00;99541.22;5100719;28;20052;-80
2022/04/02 07:35:55;;;;;;;24.67;23.38;;;;;;;16.45;100.00;99550.38;5112696;28;20055;-81
2022/04/02 07:38:27;;;;;;;25.23;23.75;;;;;;;15.80;100.00;99541.41;5108516;28;20118;-80
2022/04/02 07:41:13;;;;;;;26.70;25.25;;;;;;;15.89;100.00;99547.00;5110020;28;20063;-79
2022/04/02 07:43:44;;;;;;;27.50;26.00;;;;;;;15.91;100.00;99550.19;5113318;28;20047;-79
2022/04/02 07:46:15;;;;;;;29.80;28.27;;;;;;;15.83;100.00;99548.09;5113512;28;20048;-78
2022/04/02 07:48:44;;;;;;;27.63;26.23;;;;;;;15.97;100.00;99549.13;5109101;28;20052;-80
2022/04/02 07:51:12;;;;;;;28.77;27.27;;;;;;;16.08;100.00;99547.25;5113699;28;20067;-79
2022/04/02 07:53:45;;;;;;;27.75;26.25;;;;;;;15.89;100.00;99560.41;5113380;28;20116;-79
2022/04/02 07:56:19;;;;;;;28.13;26.70;;;;;;;16.42;100.00;99561.63;5107687;28;20134;-79
2022/04/02 07:58:51;;;;;;;27.42;25.90;;;;;;;16.63;100.00;99564.25;5112775;28;20495;-78
2022/04/02 08:01:19;;;;;;;26.88;25.48;;;;;;;16.42;100.00;99571.56;5113136;28;20048;-79
2022/04/02 08:03:48;;;;;;;27.00;25.70;;;;;;;16.67;100.00;99565.28;5109914;28;20396;-78
2022/04/02 08:06:16;;;;;;;28.20;26.90;;;;;;;16.38;100.00;99571.28;5112746;28;20073;-79
2022/04/02 08:08:45;;;;;;;28.20;26.77;;;;;;;16.28;100.00;99568.66;5112140;28;20495;-78
2022/04/02 08:11:13;;;;;;;30.45;28.85;;;;;;;16.25;100.00;99571.88;5113081;28;20055;-79
2022/04/02 08:13:44;;;;;;;29.70;28.30;;;;;;;16.31;100.00;99586.03;5099911;28;20455;-78
2022/04/02 08:16:11;;;;;;;30.25;28.75;;;;;;;17.00;100.00;99579.13;5112197;28;20096;-79
2022/04/02 08:18:40;;;;;;;28.48;27.08;;;;;;;16.65;100.00;99573.63;5112576;28;20043;-79
2022/04/02 08:21:08;;;;;;;32.15;30.65;;;;;;;16.42;100.00;99569.66;5108103;28;20126;-79
2022/04/02 08:23:35;;;;;;;28.58;27.17;;;;;;;16.74;100.00;99568.50;5112453;28;20109;-79
2022/04/02 08:26:25;;;;;;;31.02;29.52;;;;;;;16.55;100.00;99573.69;5110385;28;20046;-79
2022/04/02 08:29:07;;;;;;;31.17;29.67;;;;;;;16.72;100.00;99570.66;5097286;28;20044;-80
2022/04/02 08:31:50;;;;;;;27.48;26.15;;;;;;;16.70;100.00;99573.63;5100756;28;20051;-79
2022/04/02 08:34:27;;;;;;;26.52;25.23;;;;;;;16.71;100.00;99558.34;5105308;28;20164;-80
2022/04/02 08:37:03;;;;;;;29.95;28.20;;;;;;;16.67;100.00;99558.09;5112648;28;20055;-80
2022/04/02 08:39:37;;;;;;;28.60;27.20;;;;;;;16.91;100.00;99560.97;5107058;28;20048;-79
2022/04/02 08:42:39;;;;;;;29.85;28.42;;;;;;;16.76;100.00;99555.63;5112819;28;20464;-80
2022/04/02 08:45:09;;;;;;;29.33;27.73;;;;;;;16.51;100.00;99550.34;5108318;28;20081;-79
2022/04/02 08:48:12;;;;;;;28.38;26.95;;;;;;;16.70;100.00;99552.16;5106172;28;20044;-79
2022/04/02 08:50:43;;;;;;;;;;;;;;;18.05;100.00;99553.72;5092615;28;20496;-78
2022/04/02 08:53:18;;;;;;;29.17;27.77;;;;;;;17.24;100.00;99561.28;5108068;28;19920;-79
2022/04/02 08:55:58;;;;;;;29.88;28.13;;;;;;;17.99;100.00;99550.28;5101858;28;20143;-79
2022/04/02 08:58:39;;;;;;;30.13;28.40;;;;;;;17.67;100.00;99548.13;5106350;28;20048;-79
2022/04/02 09:01:09;;;;;;;30.77;29.27;;;;;;;16.86;100.00;99544.09;5103224;28;20118;-78
2022/04/02 09:04:14;;;;;;;29.92;28.42;;;;;;;17.98;100.00;99526.41;5099771;28;20093;-80
2022/04/02 09:07:22;;;;;;;30.42;28.92;;;;;;;17.17;100.00;99536.66;5113373;28;20104;-79
2022/04/02 09:10:24;;;;;;;30.63;28.92;;;;;;;17.67;100.00;99537.41;5112844;28;20044;-79
2022/04/02 09:13:08;;;;;;;30.40;28.80;;;;;;;17.32;100.00;99533.09;5070663;28;20096;-79
2022/04/02 09:15:50;;;;;;;29.05;27.55;;;;;;;18.66;100.00;99534.22;5106702;28;20089;-80
2022/04/02 09:18:36;;;;;;;29.17;27.42;;;;;;;17.74;100.00;99535.19;5112414;28;20047;-80
2022/04/02 09:21:20;;;;;;;31.90;30.10;;;;;;;18.17;100.00;99534.53;5112437;28;20043;-79
2022/04/02 09:24:02;;;;;;;30.88;29.17;;;;;;;19.09;98.27;99533.44;5102340;28;20059;-80
2022/04/02 09:26:55;;;;;;;31.90;30.20;;;;;;;17.22;100.00;99546.59;5105701;28;20044;-80
2022/04/02 09:29:28;;;;;;;26.33;24.92;;;;;;;17.31;100.00;99550.28;5110546;28;20431;-78
2022/04/02 09:32:35;;;;;;;27.50;26.10;;;;;;;17.94;100.00;99549.53;5108196;28;20061;-80
2022/04/02 09:35:30;;;;;;;28.90;27.30;;;;;;;18.97;100.00;99540.06;5108845;28;20104;-78
2022/04/02 09:38:45;;;;;;;28.38;26.85;;;;;;;19.32;100.00;99548.72;5099962;28;20502;-80
2022/04/02 09:41:24;;;;;;;27.05;25.45;;;;;;;19.87;100.00;99545.44;5110538;28;20086;-80
2022/04/02 09:44:18;;;;;;;27.05;25.65;;;;;;;18.31;100.00;99547.00;5111564;28;20054;-79
2022/04/02 09:47:00;;;;;;;31.10;29.50;;;;;;;19.94;100.00;99545.88;5108175;28;20514;-80
2022/04/02 09:49:36;;;;;;;29.63;28.23;;;;;;;18.95;100.00;99539.56;5106393;28;20121;-79
2022/04/02 09:52:07;;;;;;;27.90;26.48;;;;;;;18.91;97.36;99543.91;5104698;28;20562;-80
2022/04/02 09:54:39;;;;;;;28.00;26.60;;;;;;;17.01;100.00;99540.53;5115921;28;20499;-78
2022/04/02 09:57:21;;;;;;;29.20;27.80;;;;;;;18.19;100.00;99543.91;5113965;28;20078;-80
2022/04/02 10:00:01;;;;;;;31.25;29.77;;;;;;;18.80;97.07;99539.75;5111529;28;20123;-79
2022/04/02 10:02:44;;;;;;;30.38;28.67;;;;;;;18.73;99.71;99532.03;5105432;28;20052;-79
2022/04/02 10:05:15;;;;;;;29.48;27.90;;;;;;;19.90;91.62;99542.16;5113519;28;20043;-79
2022/04/02 10:07:58;;;;;;;31.00;29.50;;;;;;;19.03;87.46;99542.66;5115336;28;20484;-79
2022/04/02 10:10:26;;;;;;;30.90;29.30;;;;;;;18.44;96.23;99540.16;5102272;28;20051;-82
2022/04/02 10:12:54;;;;;;;34.40;32.70;;;;;;;18.06;98.08;99542.72;5107535;28;20161;-80
2022/04/02 10:15:23;;;;;;;32.00;30.40;;;;;;;19.19;86.42;99538.69;5106715;28;20515;-81
2022/04/02 10:17:52;;;;;;;34.47;32.88;;;;;;;19.62;80.43;99541.25;5111514;28;20092;-78
2022/04/02 10:20:20;;;;;;;31.30;29.70;;;;;;;19.86;83.32;99525.00;5109372;28;20054;-80
2022/04/02 10:23:01;;;;;;;32.00;30.45;;;;;;;19.98;75.21;99521.84;5114278;28;20104;-78
2022/04/02 10:25:33;;;;;;;33.30;31.70;;;;;;;18.52;82.36;99520.72;5113156;28;20096;-79
2022/04/02 10:28:07;;;;;;;35.10;33.50;;;;;;;19.55;80.25;99527.38;5113575;28;20039;-78
2022/04/02 10:30:36;;;;;;;34.42;32.85;;;;;;;18.28;96.09;99528.78;5107243;28;20059;-79
2022/04/02 10:35:47;;;;;;;31.48;29.88;;;;;;;20.06;70.42;99530.03;5104730;28;20043;-79
2022/04/02 10:38:31;;;;;;;32.22;30.83;;;;;;;19.27;78.03;99540.69;5114039;28;20051;-79
2022/04/02 10:41:00;;;;;;;32.60;31.15;;;;;;;18.59;80.75;99530.31;5104322;28;20044;-80
2022/04/02 10:43:30;;;;;;;30.38;28.88;;;;;;;18.30;83.30;99523.88;5114126;28;20099;-78
2022/04/02 10:46:01;;;;;;;30.70;29.20;;;;;;;18.84;76.21;99535.38;5104619;28;20040;-79
2022/04/02 10:48:46;;;;;;;28.83;27.33;;;;;;;19.58;72.07;99538.38;5106867;28;20412;-79
2022/04/02 10:51:15;;;;;;;30.27;28.88;;;;;;;19.12;71.11;99536.38;5109481;28;20403;-79
2022/04/02 10:53:45;;;;;;;32.13;30.42;;;;;;;19.56;69.33;99545.94;5113169;28;20502;-78
2022/04/02 10:56:18;;;;;;;30.73;29.23;;;;;;;19.74;71.10;99532.75;5111636;28;20115;-79
2022/04/02 10:58:48;;;;;;;28.55;27.15;;;;;;;20.16;67.46;99526.34;5113602;28;20043;-79
2022/04/02 11:01:18;;;;;;;28.30;26.90;;;;;;;19.07;72.18;99530.25;5113313;28;20096;-79
2022/04/02 11:03:53;;;;;;;29.10;27.25;;;;;;;18.83;71.72;99517.66;5109931;28;20128;-80
2022/04/02 11:06:45;;;;;;;29.23;27.73;;;;;;;20.16;69.23;99517.47;5110896;28;20096;-78
2022/04/02 11:09:30;;;;;;;31.40;29.60;;;;;;;20.97;58.72;99523.13;5113891;28;20564;-80
2022/04/02 11:12:05;;;;;;;30.20;28.60;;;;;;;20.87;59.77;99520.63;5110835;28;20115;-78
2022/04/02 11:14:38;;;;;;;32.47;30.52;;;;;;;21.63;58.75;99524.28;5113513;28;20568;-79
2022/04/02 11:17:06;;;;;;;33.55;31.75;;;;;;;20.59;61.15;99509.88;5113388;28;20051;-79
2022/04/02 11:19:56;;;;;;;32.20;30.58;;;;;;;19.64;65.64;99515.66;5113528;28;20044;-79
2022/04/02 11:22:41;;;;;;;32.50;30.88;;;;;;;20.33;58.81;99504.16;5113071;28;20066;-79
2022/04/02 11:25:13;;;;;;;28.70;27.35;;;;;;;19.43;64.49;99507.09;5106459;28;20051;-78
2022/04/02 11:27:41;;;;;;;29.25;27.75;;;;;;;19.92;57.44;99502.25;5106930;28;20051;-79
2022/04/02 11:30:10;;;;;;;30.63;29.02;;;;;;;19.70;53.86;99518.25;5106731;28;20052;-78
2022/04/02 11:32:42;;;;;;;32.30;30.70;;;;;;;20.30;53.63;99516.38;5105941;28;20044;-78
2022/04/02 11:35:11;;;;;;;28.88;27.27;;;;;;;20.74;54.37;99511.47;5104216;28;20096;-80
2022/04/02 11:37:59;;;;;;;29.23;27.73;;;;;;;20.41;58.73;99505.38;5103529;28;20052;-79
2022/04/02 11:40:29;;;;;;;28.65;27.15;;;;;;;20.47;60.71;99504.97;5109803;28;20104;-80